createdAt,value
2023-02-07T00:02:32.900Z,13.5
2023-02-07T00:08:24.750Z,12.6
2023-02-07T00:14:15.967Z,12
2023-02-07T00:20:05.935Z,12.3
2023-02-07T00:25:58.526Z,11.7
2023-02-07T00:31:49.937Z,11.1
2023-02-07T00:37:44.569Z,12
2023-02-07T00:43:36.916Z,17.2
2023-02-07T00:49:27.241Z,12.7
2023-02-07T00:55:17.541Z,13.2
2023-02-07T01:01:12.805Z,12.6
2023-02-07T01:07:03.703Z,12.4
2023-02-07T01:12:54.536Z,13
2023-02-07T01:18:46.458Z,13.9
2023-02-07T01:24:36.691Z,13.9
2023-02-07T01:30:30.139Z,13.6
2023-02-07T01:36:20.355Z,13.4
2023-02-07T01:42:11.604Z,13.4
2023-02-07T01:48:10.249Z,12.7
2023-02-07T01:54:00.119Z,12.5
2023-02-07T01:59:50.657Z,12.1
2023-02-07T02:05:45.021Z,12.1
2023-02-07T02:11:37.307Z,11.9
2023-02-07T02:17:27.993Z,11.4
2023-02-07T02:23:19.810Z,11.6
2023-02-07T02:29:10.332Z,10.3
2023-02-07T02:35:00.832Z,8.7
2023-02-07T02:40:53.589Z,7.2
2023-02-07T02:46:44.217Z,7.3
2023-02-07T02:52:56.126Z,6.5
2023-02-07T02:58:45.310Z,6.5
2023-02-07T03:04:35.987Z,6
2023-02-07T03:10:26.774Z,5.5
2023-02-07T03:16:25.628Z,4.6
2023-02-07T03:22:17.925Z,5.1
2023-02-07T03:28:08.214Z,4.5
2023-02-07T03:34:03.809Z,4.5
2023-02-07T03:39:53.934Z,4.6
2023-02-07T03:45:54.257Z,4.3
2023-02-07T03:51:43.715Z,4.2
2023-02-07T03:57:34.208Z,4.2
2023-02-07T04:03:27.597Z,5
2023-02-07T04:09:18.032Z,4.9
2023-02-07T04:15:10.896Z,5
2023-02-07T04:21:00.520Z,4.9
2023-02-07T04:26:51.582Z,4.8
2023-02-07T04:32:42.749Z,5.3
2023-02-07T04:38:33.494Z,5.9
2023-02-07T04:44:26.836Z,5.5
2023-02-07T04:50:28.582Z,5.4
2023-02-07T04:56:27.720Z,5.1
2023-02-07T05:02:17.008Z,5.5
2023-02-07T05:08:15.344Z,5
2023-02-07T05:14:08.714Z,5.6
2023-02-07T05:20:03.667Z,6
2023-02-07T05:25:53.254Z,6.3
2023-02-07T05:31:46.162Z,5.2
2023-02-07T05:37:42.997Z,6.6
2023-02-07T05:43:32.179Z,6.5
2023-02-07T05:50:36.775Z,9.3
2023-02-07T05:56:26.706Z,8
2023-02-07T06:02:19.314Z,7.3
2023-02-07T06:08:10.905Z,8.6
2023-02-07T06:14:02.389Z,8.4
2023-02-07T06:19:59.546Z,8.6
2023-02-07T06:25:47.266Z,14.4
2023-02-07T06:31:44.978Z,13.9
2023-02-07T06:37:44.460Z,11.5
2023-02-07T06:43:33.546Z,9.9
2023-02-07T06:49:24.554Z,10.6
2023-02-07T06:55:22.725Z,11.1
2023-02-07T07:01:18.749Z,10.4
2023-02-07T07:07:16.806Z,9.1
2023-02-07T07:13:24.672Z,8.5
2023-02-07T07:19:13.347Z,11.1
2023-02-07T07:25:04.681Z,9.8
2023-02-07T07:30:55.746Z,9.5
2023-02-07T07:36:47.238Z,9.4
2023-02-07T07:42:38.311Z,9
2023-02-07T07:48:31.606Z,8.4
2023-02-07T07:54:25.522Z,9.7
2023-02-07T08:00:16.850Z,10.1
2023-02-07T08:06:06.241Z,9.5
2023-02-07T08:11:54.974Z,9.5
2023-02-07T08:17:59.663Z,9
2023-02-07T08:23:51.808Z,9.5
2023-02-07T08:29:48.137Z,10.9
2023-02-07T08:35:52.226Z,12.2
2023-02-07T08:41:49.251Z,13.3
2023-02-07T08:47:50.537Z,13.1
2023-02-07T08:53:41.062Z,12.9
2023-02-07T09:00:06.350Z,14.4
2023-02-07T09:20:06.698Z,12.2
2023-02-07T09:26:56.175Z,14.5
2023-02-07T09:59:57.568Z,12.2
2023-02-07T10:06:17.319Z,10.8
2023-02-07T10:12:30.165Z,11.6
2023-02-07T10:25:59.083Z,11.6
2023-02-07T10:38:30.637Z,12.4
2023-02-07T10:44:23.023Z,12.2
2023-02-07T10:50:31.360Z,11.4
2023-02-07T11:03:10.461Z,12.3
2023-02-07T11:09:40.320Z,11.5
2023-02-07T11:15:37.547Z,10.3
2023-02-07T11:34:36.894Z,11.6
2023-02-07T11:40:58.304Z,10.4
2023-02-07T11:47:13.230Z,10.9
2023-02-07T11:53:14.475Z,10.9
2023-02-07T11:59:13.033Z,12
2023-02-07T12:05:11.008Z,9.4
2023-02-07T12:11:16.140Z,8.8
2023-02-07T12:17:08.084Z,8.9
2023-02-07T12:23:46.644Z,9.2
2023-02-07T12:29:42.599Z,9.5
2023-02-07T12:36:01.859Z,9.1
2023-02-07T12:41:50.651Z,8.9
2023-02-07T12:47:43.148Z,8.6
2023-02-07T12:53:36.417Z,8.9
2023-02-07T12:59:27.335Z,8.6
2023-02-07T13:05:20.857Z,8.7
2023-02-07T13:11:20.398Z,8.4
2023-02-07T13:17:12.294Z,8.2
2023-02-07T13:23:03.498Z,17
2023-02-07T13:28:55.093Z,7.8
2023-02-07T13:34:48.266Z,7.8
2023-02-07T13:40:40.189Z,7.9
2023-02-07T13:46:38.182Z,7.7
2023-02-07T13:52:32.811Z,8
2023-02-07T13:58:25.968Z,7.6
2023-02-07T14:04:20.356Z,8.1
2023-02-07T14:10:13.550Z,8
2023-02-07T14:16:11.019Z,7.5
2023-02-07T14:22:04.149Z,7.9
2023-02-07T14:27:54.802Z,8.3
2023-02-07T14:33:45.312Z,7.7
2023-02-07T14:39:35.626Z,7.4
2023-02-07T14:45:28.466Z,7.5
2023-02-07T14:51:22.194Z,8
2023-02-07T14:57:14.641Z,7.9
2023-02-07T15:03:06.903Z,7.6
2023-02-07T15:08:57.718Z,7.2
2023-02-07T15:14:48.399Z,7.9
2023-02-07T15:20:43.775Z,8.1
2023-02-07T15:26:34.507Z,7.1
2023-02-07T15:32:25.869Z,7.5
2023-02-07T15:38:19.627Z,11.4
2023-02-07T15:44:15.714Z,12
2023-02-07T15:50:08.464Z,6.8
2023-02-07T15:55:59.401Z,8.7
2023-02-07T16:01:53.055Z,7.8
2023-02-07T16:07:44.865Z,6.7
2023-02-07T16:13:41.690Z,7.2
2023-02-07T16:19:45.691Z,7.1
2023-02-07T16:25:42.596Z,7.2
2023-02-07T16:31:42.882Z,8.1
2023-02-07T16:37:34.829Z,7.1
2023-02-07T16:43:38.266Z,6.5
2023-02-07T16:49:29.596Z,8.5
2023-02-07T16:55:23.069Z,7.6
2023-02-07T17:01:23.041Z,8.5
2023-02-07T17:07:13.484Z,9.5
2023-02-07T17:13:54.816Z,9.1
2023-02-07T17:40:54.239Z,12.2
2023-02-07T17:47:07.299Z,12.4
2023-02-07T17:53:26.644Z,14
2023-02-07T17:59:19.830Z,14.9
2023-02-07T18:05:16.318Z,16.7
2023-02-07T18:11:14.978Z,17.3
2023-02-07T18:17:21.312Z,14.7
2023-02-07T18:23:20.970Z,14.9
2023-02-07T18:29:19.631Z,15.4
2023-02-07T18:35:18.059Z,19.6
2023-02-07T18:41:11.351Z,20.8
2023-02-07T18:47:02.998Z,17.1
2023-02-07T18:53:03.281Z,16.9
2023-02-07T18:58:55.206Z,16
2023-02-07T19:04:46.007Z,16
2023-02-07T19:10:43.052Z,16.2
2023-02-07T19:16:34.079Z,16
2023-02-07T19:22:45.106Z,15.9
2023-02-07T19:28:49.787Z,16.4
2023-02-07T19:34:40.321Z,16.8
2023-02-07T19:41:14.166Z,19.7
2023-02-07T19:47:34.863Z,19.2
2023-02-07T19:53:43.902Z,16.8
2023-02-07T19:59:33.732Z,18.6
2023-02-07T20:05:27.559Z,20
2023-02-07T20:11:23.181Z,21.6
2023-02-07T20:18:12.711Z,27.7
2023-02-07T20:24:16.554Z,20
2023-02-07T20:30:07.048Z,29.1
2023-02-07T20:56:56.788Z,18.8
2023-02-07T21:02:49.692Z,20.3
2023-02-07T21:08:45.257Z,22.1
2023-02-07T21:14:38.187Z,21.7
2023-02-07T21:20:30.307Z,28.6
2023-02-07T21:26:22.782Z,28.8
2023-02-07T21:32:12.812Z,21.1
2023-02-07T21:38:05.904Z,20.1
2023-02-07T21:43:58.920Z,17.7
2023-02-07T21:49:53.122Z,18.3
2023-02-07T21:56:05.787Z,30.5
2023-02-07T22:02:12.317Z,22
2023-02-07T22:08:09.564Z,20.5
2023-02-07T22:20:05.550Z,17.2
2023-02-07T22:25:56.848Z,16
2023-02-07T22:32:18.160Z,17
2023-02-07T22:38:21.428Z,16
2023-02-07T22:44:12.343Z,16
2023-02-07T22:57:32.645Z,14.8
2023-02-07T23:03:34.992Z,15.6
2023-02-07T23:09:24.901Z,17
2023-02-07T23:15:33.757Z,19.3
2023-02-07T23:21:23.541Z,18
2023-02-07T23:27:15.656Z,13.9
2023-02-07T23:33:22.708Z,18.2
2023-02-07T23:39:26.195Z,156.6
2023-02-07T23:45:17.446Z,144.3
2023-02-07T23:51:14.646Z,84
2023-02-07T23:57:09.155Z,42.4
